Pagina principale
METAR-TAF:

METAR-TAF

Aeroporti :

Aeroporto di Brescia-Ghedi

Brescia Ghedi, Italia

latitudine: 45-25N, longitudine: 010-17E, altezza: 102 m

Osservazione

Il bollettino è stato emesso 42 minuti fa, alle 09:55 UTC
Vento 2 kt da est/sud-est
Temperature 20°C
Umidità 56%
Pressione 1021 hPa
Visibilità 10 km o più
nessuna nube inferiore a 1500 m e nessun cumulonembo

METAR: LIPL 210955Z 12002KT CAVOK 20/11 Q1021 RMK BKN BKN200 VIS MIN 9999 WIND THR31 18002KT WIND THR13 18002KT BLU

Ora: 12:37 (10:37 UTC)

Previsione

Il bollettino è stato emesso 2 ore e 37 minuti fa, alle 08:00 UTC
Previsione valida dal 21 alle 09 UTC al 21 alle 18 UTC
Vento 4 kt da est
Visibilità 10 km o più
Nubi sparse ad un'altezza di 8000 ft
Evoluzione graduale
dal 21 alle 10 UTC al 21 alle 12 UTC
Vento 10 kt da est

TAF: LIPL 210800Z 2109/2118 08004KT 9999 SCT080 BECMG 2110/2112 10010KT

Osservazioni e previsioni meteorologiche di più di 4000 aeroporti (messaggi METAR e TAF).

Le stazioni disponibili sono rappresentate dai dischi gialli e rossi sulla carta.

Puntare il mouse per vedere il nome della stazione.

Clicca sopra per visualizzare le osservazioni e previsioni meteorologiche.

Per cambiare la mappa : fare clic sui pulsanti verdi con una croce nera per ingrandire, il pulsante verde con un trattino per diminuire, o sulla freccia verde per le mappe adiacenti.


METAR-TAF: